Weather History for KHST - November, 2013

Change the Weather History Date:

Saturday, November 9, 2013

  Actual Average Record
Temperature  
Mean Temperature 78 °F -  
Max Temperature 82 °F 81 °F 90 °F (1958)
Min Temperature 73 °F 63 °F 52 °F (1976)
Cooling Degree Days 12    
Growing Degree Days 28 (Base 50)    
Moisture  
Dew Point 73 °F    
Average Humidity 90    
Maximum Humidity 100    
Minimum Humidity 72    
Precipitation  
Precipitation 0.24 in - - ()
Sea Level Pressure  
Sea Level Pressure 30.06 in    
Wind  
Wind Speed 12 mph (ENE)    
Max Wind Speed 21 mph    
Max Gust Speed 28 mph    
Visibility 9 miles    
Events Rain    
Averages and records for this station are not official NWS values.
T = Trace of Precipitation, MM = Missing Value Source: NWS Daily Summary

Daily Weather History Graph

Daily Weather History Graph

Search for Another Location

Airport or City:

Trip Planner

Search our weather history database for the weather conditions in past years. The results will help you decide how hot, cold, wet, or windy it might be!

Date:

Astronomy

Nov. 09, 2013 Rise Set
Actual Time 6:34 AM EST 5:35 PM EST
Civil Twilight 6:10 AM EST 5:59 PM EST
Nautical Twilight 5:43 AM EST 6:27 PM EST
Astronomical Twilight 5:16 AM EST 6:54 PM EST
Moon 12:16 PM EST (11/9) 11:55 PM EST (11/9)
Length of Visible Light 11h 48m
Length of Day
11h 00m
Waxing Crescent, 44% of the Moon is Illuminated
Nov 9
Waxing Crescent
Nov 10
First Quarter
Nov 17
Full
Nov 25
Last Quarter
Dec 2
New

Hourly Weather History & Observations

Time (EST) Temp. Heat Index Dew Point Humidity Pressure Visibility Wind Dir Wind Speed Gust Speed Precip Events Conditions
12:58 AM 76.5 °F - 72.5 °F 87% 30.02 in 10.0 mi ENE 5.8 mph - N/A   Partly Cloudy
1:58 AM 77.0 °F - 70.5 °F 80% 30.02 in 10.0 mi East 8.1 mph - N/A   Clear
2:58 AM 77.0 °F - 69.8 °F 78% 30.01 in 10.0 mi East 6.9 mph - N/A   Partly Cloudy
3:58 AM 76.6 °F - 70.2 °F 80% 30.01 in 10.0 mi ENE 9.2 mph - N/A   Clear
4:48 AM 77.0 °F - 71.6 °F 83% 30.01 in 10.0 mi East 6.9 mph - N/A   Mostly Cloudy
4:58 AM 77.0 °F - 71.8 °F 84% 30.02 in 10.0 mi ENE 9.2 mph - N/A   Scattered Clouds
5:58 AM 77.2 °F - 71.4 °F 82% 30.04 in 10.0 mi ENE 9.2 mph - N/A   Partly Cloudy
6:58 AM 77.5 °F - 71.4 °F 81% 30.05 in 10.0 mi East 8.1 mph - N/A   Scattered Clouds
7:37 AM 78.8 °F - 73.4 °F 83% 30.06 in 8.0 mi East 13.8 mph - N/A Rain Light Rain
7:49 AM 78.8 °F - 73.4 °F 83% 30.06 in 10.0 mi ENE 10.4 mph - N/A   Partly Cloudy
7:58 AM 78.3 °F - 72.9 °F 83% 30.07 in 10.0 mi ENE 12.7 mph - 0.00 in   Scattered Clouds
8:58 AM 81.0 °F 85.6 °F 72.7 °F 76% 30.08 in 10.0 mi East 16.1 mph - N/A   Partly Cloudy
9:58 AM 81.5 °F 86.7 °F 73.2 °F 76% 30.10 in 10.0 mi ENE 16.1 mph 24.2 mph N/A   Clear
10:58 AM 82.0 °F 87.4 °F 73.0 °F 74% 30.09 in 10.0 mi ENE 16.1 mph 21.9 mph N/A   Clear
11:58 AM 82.9 °F 88.8 °F 73.2 °F 72% 30.08 in 10.0 mi ENE 15.0 mph 24.2 mph N/A   Clear
12:58 PM 81.9 °F 87.3 °F 73.4 °F 75% 30.06 in 10.0 mi ENE 17.3 mph 24.2 mph N/A   Partly Cloudy
1:32 PM 80.6 °F 85.4 °F 73.4 °F 79% 30.05 in 10.0 mi ENE 13.8 mph 24.2 mph N/A Rain Light Rain
1:41 PM 78.8 °F - 73.4 °F 83% 30.04 in 10.0 mi ENE 13.8 mph - N/A   Partly Cloudy
1:58 PM 80.6 °F 85.2 °F 73.2 °F 78% 30.05 in 10.0 mi ENE 15.0 mph - 0.00 in   Partly Cloudy
2:58 PM 79.7 °F - 73.9 °F 82% 30.05 in 10.0 mi ENE 13.8 mph - N/A   Partly Cloudy
3:58 PM 79.9 °F - 72.7 °F 79% 30.04 in 10.0 mi NE 18.4 mph 23.0 mph N/A   Partly Cloudy
4:08 PM 78.8 °F - 73.4 °F 83% 30.04 in 10.0 mi ENE 13.8 mph - N/A Rain Light Rain
4:13 PM 78.8 °F - 73.4 °F 83% 30.04 in 10.0 mi NE 15.0 mph - N/A   Light Drizzle
4:23 PM 78.8 °F - 73.4 °F 83% 30.04 in 7.0 mi NE 19.6 mph - N/A Rain Light Rain
4:33 PM 77.0 °F - 73.4 °F 89% 30.04 in 2.5 mi NE 18.4 mph - N/A Rain Rain
4:38 PM 75.2 °F - 73.4 °F 94% 30.04 in 3.0 mi NE 18.4 mph - N/A Rain Light Rain
4:53 PM 75.2 °F - 73.4 °F 94% 30.05 in 9.0 mi ENE 16.1 mph 21.9 mph N/A Rain Light Rain
4:58 PM 75.4 °F - 73.6 °F 94% 30.06 in 9.0 mi ENE 13.8 mph 21.9 mph 0.03 in Rain Light Rain
5:01 PM 75.2 °F - 73.4 °F 94% 30.05 in 10.0 mi ENE 16.1 mph - N/A   Mostly Cloudy
5:11 PM 75.2 °F - 73.4 °F 94% 30.06 in 10.0 mi NE 12.7 mph 21.9 mph N/A   Scattered Clouds
5:32 PM 73.4 °F - 73.4 °F 100% 30.06 in 9.0 mi NE 15.0 mph - N/A Rain Light Rain
5:42 PM 75.2 °F - 73.4 °F 94% 30.06 in 7.0 mi NE 13.8 mph - N/A Rain Light Rain
5:58 PM 74.5 °F - 73.4 °F 96% 30.07 in 7.0 mi NE 12.7 mph - 0.01 in Rain Light Rain
6:17 PM 75.2 °F - 73.4 °F 94% 30.06 in 10.0 mi NE 11.5 mph - N/A   Overcast
6:22 PM 75.2 °F - 73.4 °F 94% 30.06 in 10.0 mi NE 11.5 mph - N/A   Mostly Cloudy
6:37 PM 75.2 °F - 73.4 °F 94% 30.06 in 10.0 mi NE 11.5 mph - N/A   Mostly Cloudy
6:58 PM 75.2 °F - 73.2 °F 94% 30.08 in 10.0 mi ENE 13.8 mph 21.9 mph 0.00 in   Mostly Cloudy
7:08 PM 75.2 °F - 73.4 °F 94% 30.07 in 10.0 mi NE 12.7 mph - N/A   Mostly Cloudy
7:48 PM 75.2 °F - 73.4 °F 94% 30.07 in 9.0 mi ENE 20.7 mph - N/A   Light Drizzle
7:53 PM 75.2 °F - 73.4 °F 94% 30.07 in 7.0 mi NE 17.3 mph 27.6 mph N/A Rain Light Rain
7:58 PM 75.4 °F - 73.2 °F 93% 30.09 in 7.0 mi NE 16.1 mph 27.6 mph 0.00 in Rain Light Rain
8:03 PM 75.2 °F - 73.4 °F 94% 30.07 in 9.0 mi NE 16.1 mph - N/A Rain Light Rain
8:08 PM 75.2 °F - 73.4 °F 94% 30.07 in 8.0 mi NE 15.0 mph - N/A Rain Light Rain
8:13 PM 75.2 °F - 73.4 °F 94% 30.08 in 6.0 mi NE 16.1 mph - N/A Rain Light Rain
8:23 PM 75.2 °F - 73.4 °F 94% 30.07 in 5.0 mi NE 15.0 mph 21.9 mph N/A Rain Light Rain
8:33 PM 75.2 °F - 73.4 °F 94% 30.07 in 10.0 mi NE 16.1 mph - N/A   Overcast
8:38 PM 75.2 °F - 73.4 °F 94% 30.07 in 10.0 mi NE 15.0 mph - N/A   Mostly Cloudy
8:48 PM 75.2 °F - 73.4 °F 94% 30.07 in 10.0 mi NNE 15.0 mph - N/A   Mostly Cloudy
8:50 PM 75.2 °F - 73.4 °F 94% 30.07 in 10.0 mi NE 16.1 mph - N/A Rain Light Rain
8:55 PM 75.2 °F - 73.4 °F 94% 30.07 in 8.0 mi NNE 16.1 mph - N/A Rain Light Rain
8:58 PM 74.8 °F - 73.2 °F 95% 30.08 in 8.0 mi NE 16.1 mph - 0.02 in Rain Light Rain
9:08 PM 75.2 °F - 73.4 °F 94% 30.07 in 8.0 mi NE 13.8 mph - N/A Rain Light Rain
9:16 PM 75.2 °F - 73.4 °F 94% 30.08 in 10.0 mi East 8.1 mph - N/A   Overcast
9:26 PM 75.2 °F - 73.4 °F 94% 30.08 in 9.0 mi East 8.1 mph - N/A Rain Light Rain
9:31 PM 75.2 °F - 73.4 °F 94% 30.09 in 8.0 mi ENE 8.1 mph - N/A Rain Light Rain
9:39 PM 75.2 °F - 73.4 °F 94% 30.08 in 10.0 mi ENE 11.5 mph - N/A   Overcast
9:44 PM 75.2 °F - 73.4 °F 94% 30.08 in 10.0 mi ENE 10.4 mph - N/A   Overcast
9:58 PM 75.0 °F - 73.6 °F 95% 30.10 in 10.0 mi ENE 8.1 mph - 0.00 in   Mostly Cloudy
9:59 PM 75.2 °F - 73.4 °F 94% 30.09 in 8.0 mi ENE 8.1 mph - N/A Rain Light Rain
10:09 PM 75.2 °F - 73.4 °F 94% 30.09 in 3.0 mi ENE 8.1 mph - N/A Rain Light Rain
10:14 PM 75.2 °F - 73.4 °F 94% 30.08 in 2.5 mi NE 9.2 mph - N/A Rain Rain
10:19 PM 75.2 °F - 73.4 °F 94% 30.08 in 3.0 mi NE 8.1 mph - N/A Rain Heavy Rain
10:24 PM 75.2 °F - 73.4 °F 94% 30.08 in 4.0 mi NE 9.2 mph - N/A Rain Rain
10:29 PM 75.2 °F - 75.2 °F 100% 30.08 in 5.0 mi NE 15.0 mph - N/A Rain Rain
10:34 PM 75.2 °F - 75.2 °F 100% 30.08 in 7.0 mi ENE 15.0 mph - N/A Rain Light Rain
10:44 PM 75.2 °F - 73.4 °F 94% 30.08 in 10.0 mi NE 13.8 mph - N/A   Mostly Cloudy
10:58 PM 75.4 °F - 73.9 °F 95% 30.09 in 10.0 mi NE 12.7 mph - 0.14 in   Mostly Cloudy
11:03 PM 75.2 °F - 73.4 °F 94% 30.08 in 10.0 mi NE 12.7 mph - N/A   Mostly Cloudy
11:08 PM 75.2 °F - 73.4 °F 94% 30.08 in 10.0 mi NE 12.7 mph - N/A   Mostly Cloudy
11:16 PM 75.2 °F - 73.4 °F 94% 30.08 in 10.0 mi NE 12.7 mph - N/A   Light Drizzle
11:26 PM 75.2 °F - 75.2 °F 100% 30.07 in 9.0 mi NE 8.1 mph - N/A Rain Light Rain
11:31 PM 75.2 °F - 75.2 °F 100% 30.07 in 10.0 mi NE 8.1 mph - N/A   Mostly Cloudy
11:36 PM 75.2 °F - 75.2 °F 100% 30.07 in 10.0 mi ENE 6.9 mph - N/A   Mostly Cloudy
11:42 PM 75.2 °F - 75.2 °F 100% 30.07 in 8.0 mi ENE 9.2 mph - N/A Rain Light Rain
11:52 PM 75.2 °F - 73.4 °F 94% 30.07 in 4.0 mi ENE 12.7 mph - N/A Rain Rain
11:58 PM 75.2 °F - 75.2 °F 100% 30.08 in 4.0 mi ENE 8.1 mph - 0.04 in Rain Light Rain